Time;durP1;ratioP1;P1;durP2;ratioP2;P2;SDS_P1;SDS_P2;PMS_P1;PMS_P2;Temp;Humidity;BMP_temperature;BMP_pressure;BME280_temperature;BME280_humidity;BME280_pressure;Samples;Min_cycle;Max_cycle;Signal;HPM_P1;HPM_P2
2022/11/25 00:02:11;;;;;;;3.67;1.33;;;19.10;1.00;;;;;;4804136;29;20156;-61
2022/11/25 00:04:38;;;;;;;4.25;1.05;;;19.00;1.00;;;;;;4804664;29;20062;-61
2022/11/25 00:07:04;;;;;;;4.60;1.63;;;19.00;1.00;;;;;;4804865;29;20055;-61
2022/11/25 00:09:31;;;;;;;4.05;1.40;;;19.00;1.00;;;;;;4804955;29;20125;-61
2022/11/25 00:11:58;;;;;;;4.78;1.08;;;19.00;1.00;;;;;;4804851;29;20180;-62
2022/11/25 00:14:25;;;;;;;3.30;1.25;;;18.90;1.00;;;;;;4804634;29;20043;-61
2022/11/25 00:16:51;;;;;;;3.00;1.02;;;18.90;1.00;;;;;;4804787;29;20129;-61
2022/11/25 00:19:18;;;;;;;3.03;1.00;;;18.90;1.00;;;;;;4804622;29;20050;-61
2022/11/25 00:21:45;;;;;;;4.60;1.65;;;18.80;1.00;;;;;;4804805;29;20108;-61
2022/11/25 00:24:14;;;;;;;2.78;1.50;;;18.80;1.00;;;;;;4804567;29;20054;-61
2022/11/25 00:26:40;;;;;;;4.90;1.30;;;18.80;1.00;;;;;;4804718;29;20139;-61
2022/11/25 00:29:10;;;;;;;4.78;1.10;;;18.80;1.00;;;;;;4788418;29;20146;-61
2022/11/25 00:31:38;;;;;;;4.13;1.42;;;18.70;1.00;;;;;;4804602;29;20066;-61
2022/11/25 00:34:06;;;;;;;3.08;0.90;;;18.70;1.00;;;;;;4788431;29;20042;-61
2022/11/25 00:36:35;;;;;;;5.85;1.98;;;18.60;1.00;;;;;;4804668;29;20071;-61
2022/11/25 00:39:16;;;;;;;7.55;1.42;;;18.60;1.00;;;;;;4788383;29;20051;-60
2022/11/25 00:44:37;;;;;;;8.45;1.08;;;18.60;1.00;;;;;;4804326;29;20081;-61
2022/11/25 00:47:10;;;;;;;4.22;1.23;;;18.50;1.00;;;;;;4804615;29;20051;-61
2022/11/25 00:49:38;;;;;;;6.40;1.38;;;18.50;1.00;;;;;;4804647;29;20055;-61
2022/11/25 00:52:05;;;;;;;6.05;1.35;;;18.50;1.00;;;;;;4788192;29;20081;-61
2022/11/25 00:54:32;;;;;;;8.23;1.48;;;18.40;1.00;;;;;;4787890;29;20123;-61
2022/11/25 00:56:59;;;;;;;2.65;1.15;;;18.40;1.00;;;;;;4788170;29;20042;-60
2022/11/25 00:59:28;;;;;;;5.97;1.80;;;18.40;1.00;;;;;;4788162;29;20051;-61
2022/11/25 01:01:58;;;;;;;4.82;1.23;;;18.40;1.00;;;;;;4788125;29;20092;-61
2022/11/25 01:04:25;;;;;;;4.47;1.30;;;18.30;1.00;;;;;;4787916;29;20054;-61
2022/11/25 01:06:53;;;;;;;4.90;1.20;;;18.30;1.00;;;;;;4788189;29;20058;-61
2022/11/25 01:09:19;;;;;;;5.18;1.20;;;18.30;1.00;;;;;;4787977;29;20047;-60
2022/11/25 01:11:49;;;;;;;2.50;0.80;;;18.30;1.00;;;;;;4787961;29;20047;-61
2022/11/25 01:14:17;;;;;;;4.13;1.40;;;18.30;1.00;;;;;;4789730;29;20055;-61
2022/11/25 01:16:46;;;;;;;7.25;1.27;;;18.30;1.00;;;;;;4807664;29;20066;-60
2022/11/25 01:19:13;;;;;;;3.65;1.38;;;18.30;1.00;;;;;;4807553;29;20499;-61
2022/11/25 01:21:40;;;;;;;6.43;1.42;;;18.20;1.00;;;;;;4791224;29;20051;-61
2022/11/25 01:24:12;;;;;;;4.50;1.67;;;18.20;1.00;;;;;;4790995;29;20050;-61
2022/11/25 01:26:40;;;;;;;6.63;1.48;;;18.20;1.00;;;;;;4807457;29;20124;-61
2022/11/25 01:29:13;;;;;;;5.60;1.40;;;18.20;1.00;;;;;;4791005;29;20082;-61
2022/11/25 01:31:41;;;;;;;3.55;0.90;;;18.20;1.00;;;;;;4807420;29;20043;-61
2022/11/25 01:34:23;;;;;;;5.70;1.17;;;18.10;1.00;;;;;;4807060;29;20444;-61
2022/11/25 01:36:50;;;;;;;5.80;1.52;;;18.10;1.00;;;;;;4791055;29;20158;-61
2022/11/25 01:39:19;;;;;;;6.60;1.60;;;18.10;1.00;;;;;;4807289;29;20074;-61
2022/11/25 01:41:47;;;;;;;2.97;2.00;;;18.10;1.00;;;;;;4807242;29;20042;-61
2022/11/25 01:44:18;;;;;;;5.07;1.50;;;18.00;1.00;;;;;;4806960;29;20392;-61
2022/11/25 01:46:53;;;;;;;5.07;1.27;;;18.00;1.00;;;;;;4807113;29;20084;-61
2022/11/25 01:49:51;;;;;;;5.78;1.33;;;18.00;1.00;;;;;;4790887;29;20396;-61
2022/11/25 01:52:30;;;;;;;3.63;0.85;;;18.00;1.00;;;;;;4790408;29;20047;-61
2022/11/25 01:55:08;;;;;;;2.85;1.00;;;18.00;1.00;;;;;;4807070;29;20126;-61
2022/11/25 01:57:46;;;;;;;4.38;1.30;;;18.00;1.00;;;;;;4790607;29;20471;-61
2022/11/25 02:00:13;;;;;;;4.70;1.63;;;17.90;1.00;;;;;;4807007;29;20050;-61
2022/11/25 02:02:44;;;;;;;6.10;1.60;;;17.90;1.00;;;;;;4806635;29;20424;-61
2022/11/25 02:05:16;;;;;;;3.35;1.17;;;17.90;1.00;;;;;;4806802;29;20537;-61
2022/11/25 02:07:47;;;;;;;5.28;1.30;;;17.90;1.00;;;;;;4790509;29;20062;-61
2022/11/25 02:10:18;;;;;;;4.63;1.38;;;17.90;1.00;;;;;;4790487;29;20116;-61
2022/11/25 02:12:47;;;;;;;3.40;0.88;;;17.80;1.00;;;;;;4806475;29;20034;-61
2022/11/25 02:15:15;;;;;;;4.20;1.02;;;17.80;1.00;;;;;;4790452;29;20047;-61
2022/11/25 02:17:43;;;;;;;3.47;1.38;;;17.80;1.00;;;;;;4790206;29;20047;-61
2022/11/25 02:20:21;;;;;;;5.22;1.63;;;17.80;1.00;;;;;;4790211;29;20065;-61
2022/11/25 02:22:55;;;;;;;3.60;1.05;;;17.80;1.00;;;;;;4790190;29;20054;-61
2022/11/25 02:25:23;;;;;;;3.15;1.08;;;17.70;1.00;;;;;;4789446;29;20086;-61
2022/11/25 02:27:57;;;;;;;2.78;1.00;;;17.70;1.00;;;;;;4814470;29;20064;-62
2022/11/25 02:30:24;;;;;;;5.65;1.13;;;17.70;1.00;;;;;;4808050;29;20061;-61
2022/11/25 02:32:52;;;;;;;3.78;1.58;;;17.70;1.00;;;;;;4808028;29;20118;-60
2022/11/25 02:35:26;;;;;;;2.15;0.70;;;17.70;1.00;;;;;;4824439;29;20078;-60
2022/11/25 02:37:57;;;;;;;4.00;1.73;;;17.70;1.00;;;;;;4808057;29;20054;-61
2022/11/25 02:40:26;;;;;;;7.55;1.75;;;17.60;1.00;;;;;;4808000;29;20050;-61
2022/11/25 02:42:55;;;;;;;3.03;1.25;;;17.60;1.00;;;;;;4807688;29;20418;-61
2022/11/25 02:45:41;;;;;;;6.47;1.23;;;17.60;1.00;;;;;;4807936;29;20054;-61
2022/11/25 02:48:08;;;;;;;2.90;1.13;;;17.60;1.00;;;;;;4824351;29;20060;-61
2022/11/25 02:50:34;;;;;;;2.90;1.10;;;17.60;1.00;;;;;;4807819;29;20388;-61
2022/11/25 02:53:01;;;;;;;3.72;1.45;;;17.60;1.00;;;;;;4807510;29;20054;-61
2022/11/25 02:55:28;;;;;;;4.50;0.90;;;17.50;1.00;;;;;;4822786;29;20059;-61
2022/11/25 02:57:54;;;;;;;5.30;1.15;;;17.50;1.00;;;;;;4817166;24;20192;-59
2022/11/25 03:00:22;;;;;;;5.32;1.63;;;17.50;1.00;;;;;;4814918;29;20145;-59
2022/11/25 03:02:52;;;;;;;4.13;1.30;;;17.50;1.00;;;;;;4837725;29;20050;-59
2022/11/25 03:05:21;;;;;;;4.07;1.13;;;17.50;1.00;;;;;;4822814;29;20051;-59
2022/11/25 03:07:49;;;;;;;2.42;0.80;;;17.50;1.00;;;;;;4822707;29;20465;-59
2022/11/25 03:10:20;;;;;;;3.42;0.88;;;17.50;1.00;;;;;;4822786;29;20038;-59
2022/11/25 03:12:47;;;;;;;1.83;0.70;;;17.40;1.00;;;;;;4822309;29;20046;-59
2022/11/25 03:15:14;;;;;;;4.60;1.35;;;17.40;1.00;;;;;;4822661;29;20050;-59
2022/11/25 03:17:41;;;;;;;3.25;1.20;;;17.40;1.00;;;;;;4837742;29;20054;-59
2022/11/25 03:20:09;;;;;;;3.40;0.93;;;17.40;1.00;;;;;;4822632;29;20043;-59
2022/11/25 03:22:36;;;;;;;2.47;1.05;;;17.40;1.00;;;;;;4837207;29;20106;-59
2022/11/25 03:25:04;;;;;;;2.80;0.80;;;17.40;1.00;;;;;;4837530;29;20054;-59
2022/11/25 03:27:33;;;;;;;3.05;1.20;;;17.40;1.00;;;;;;4822484;29;20070;-59
2022/11/25 03:30:01;;;;;;;3.92;1.05;;;17.40;1.00;;;;;;4822519;29;20054;-60
2022/11/25 03:32:28;;;;;;;6.30;1.33;;;17.30;1.00;;;;;;4822105;29;20046;-60
2022/11/25 03:34:57;;;;;;;3.78;0.77;;;17.30;1.00;;;;;;4822275;29;20423;-60
2022/11/25 03:37:23;;;;;;;2.70;0.98;;;17.30;1.00;;;;;;4837288;29;20046;-58
2022/11/25 03:39:50;;;;;;;2.65;1.05;;;17.30;1.00;;;;;;4837417;29;20051;-59
2022/11/25 03:42:17;;;;;;;2.13;0.65;;;17.30;1.00;;;;;;4823248;29;20050;-60
2022/11/25 03:44:44;;;;;;;1.83;0.95;;;17.30;1.00;;;;;;4822319;29;20051;-59
2022/11/25 03:47:10;;;;;;;2.83;1.23;;;17.20;1.00;;;;;;4837317;29;20498;-58
2022/11/25 03:49:37;;;;;;;3.25;1.05;;;17.30;1.00;;;;;;4823291;29;20050;-58
2022/11/25 03:52:05;;;;;;;4.03;1.15;;;17.20;1.00;;;;;;4837197;29;20433;-58
2022/11/25 03:54:32;;;;;;;2.60;0.75;;;17.20;1.00;;;;;;4821917;29;20050;-58
2022/11/25 03:57:15;;;;;;;3.60;1.00;;;17.20;1.00;;;;;;4822133;29;20403;-58
2022/11/25 03:59:42;;;;;;;3.35;1.08;;;17.20;1.00;;;;;;4821987;29;20062;-58
2022/11/25 04:02:09;;;;;;;2.08;1.10;;;17.20;1.00;;;;;;4821900;29;20064;-58
2022/11/25 04:04:37;;;;;;;2.08;0.88;;;17.20;1.00;;;;;;4836974;29;20133;-58
2022/11/25 04:07:04;;;;;;;1.88;0.73;;;17.20;1.00;;;;;;4821977;29;20054;-58
2022/11/25 04:09:32;;;;;;;5.88;0.90;;;17.10;1.00;;;;;;4821862;29;20057;-58
2022/11/25 04:14:52;;;;;;;2.63;0.65;;;17.10;1.00;;;;;;4821994;29;20056;-58
2022/11/25 04:17:19;;;;;;;4.13;1.13;;;17.10;1.00;;;;;;4836954;29;20046;-58
2022/11/25 04:19:46;;;;;;;4.47;1.00;;;17.10;1.00;;;;;;4821837;29;20124;-58
2022/11/25 04:22:13;;;;;;;2.78;1.25;;;17.10;1.00;;;;;;4822924;29;20059;-59
2022/11/25 04:24:43;;;;;;;3.35;0.88;;;17.10;1.00;;;;;;4836863;29;20062;-59
2022/11/25 04:27:12;;;;;;;2.67;0.90;;;17.10;1.00;;;;;;4836766;29;20111;-59
2022/11/25 04:29:39;;;;;;;1.58;0.77;;;17.10;1.00;;;;;;4836955;29;20415;-59
2022/11/25 04:32:08;;;;;;;3.58;0.70;;;17.00;1.00;;;;;;4836712;29;20046;-60
2022/11/25 04:34:35;;;;;;;2.67;1.35;;;17.00;1.00;;;;;;4822697;29;20059;-59
2022/11/25 04:37:02;;;;;;;3.55;1.00;;;17.00;1.00;;;;;;4836817;29;20050;-59
2022/11/25 04:39:29;;;;;;;3.95;0.90;;;17.00;1.00;;;;;;4821561;29;20518;-59
2022/11/25 04:44:45;;;;;;;2.70;1.20;;;17.00;1.00;;;;;;4821605;29;20491;-58
2022/11/25 04:47:31;;;;;;;2.75;1.00;;;17.00;1.00;;;;;;4836725;29;20106;-59
2022/11/25 04:49:58;;;;;;;3.50;0.75;;;17.00;1.00;;;;;;4839726;29;20392;-58
2022/11/25 04:52:25;;;;;;;3.40;1.30;;;16.90;1.00;;;;;;4839799;29;20685;-59
2022/11/25 04:54:53;;;;;;;3.35;0.77;;;17.00;1.00;;;;;;4840530;29;20138;-60
2022/11/25 04:57:20;;;;;;;2.38;0.90;;;16.90;1.00;;;;;;4826142;29;20126;-60
2022/11/25 04:59:47;;;;;;;2.35;0.70;;;16.90;1.00;;;;;;4824707;29;20046;-60
2022/11/25 05:02:15;;;;;;;1.35;0.60;;;16.90;1.00;;;;;;4825740;29;20082;-59
2022/11/25 05:04:53;;;;;;;0.88;0.30;;;16.90;1.00;;;;;;4824751;29;20088;-59
2022/11/25 05:07:22;;;;;;;2.40;0.73;;;16.90;1.00;;;;;;4824665;29;20059;-59
2022/11/25 05:09:51;;;;;;;3.75;0.93;;;16.90;1.00;;;;;;4824609;29;20077;-59
2022/11/25 05:12:40;;;;;;;3.20;1.08;;;16.90;1.00;;;;;;4824287;29;20051;-58
2022/11/25 05:15:11;;;;;;;3.92;0.60;;;16.90;1.00;;;;;;4839779;29;20396;-59
2022/11/25 05:17:43;;;;;;;2.88;0.85;;;16.90;1.00;;;;;;4839763;29;20498;-59
2022/11/25 05:20:11;;;;;;;4.68;1.17;;;16.80;1.00;;;;;;4839807;29;20616;-59
2022/11/25 05:22:38;;;;;;;3.50;1.10;;;16.80;1.00;;;;;;4825346;29;20129;-59
2022/11/25 05:25:09;;;;;;;3.95;0.98;;;16.80;1.00;;;;;;4839637;29;20056;-59
2022/11/25 05:27:43;;;;;;;5.05;0.95;;;16.80;1.00;;;;;;4824218;29;20085;-59
2022/11/25 05:30:12;;;;;;;10.82;1.50;;;16.80;1.00;;;;;;4824253;29;20061;-59
2022/11/25 05:32:39;;;;;;;7.95;1.40;;;16.80;1.00;;;;;;4823976;29;20555;-58
2022/11/25 05:35:09;;;;;;;21.90;2.00;;;16.80;1.00;;;;;;4824148;29;20407;-58
2022/11/25 05:37:38;;;;;;;4.05;1.08;;;16.70;1.00;;;;;;4824136;29;20080;-58
2022/11/25 05:40:06;;;;;;;6.20;0.98;;;16.70;1.00;;;;;;4824023;29;20145;-58
2022/11/25 05:42:50;;;;;;;2.88;1.45;;;16.70;1.00;;;;;;4839193;29;20146;-58
2022/11/25 05:45:18;;;;;;;9.55;1.27;;;16.70;1.00;;;;;;4823993;29;20467;-58
2022/11/25 05:47:45;;;;;;;7.38;1.10;;;16.70;1.00;;;;;;4823899;29;20063;-57
2022/11/25 05:50:16;;;;;;;8.98;1.20;;;16.70;1.00;;;;;;4839497;29;20106;-58
2022/11/25 05:53:01;;;;;;;6.63;0.77;;;16.70;1.00;;;;;;4824791;29;20388;-58
2022/11/25 05:55:28;;;;;;;3.20;1.15;;;16.70;1.00;;;;;;4839173;29;20046;-58
2022/11/25 05:57:58;;;;;;;7.82;1.00;;;16.70;1.00;;;;;;4839041;29;20145;-56
2022/11/25 06:00:26;;;;;;;5.63;1.35;;;16.70;1.00;;;;;;4822713;29;20054;-58
2022/11/25 06:02:53;;;;;;;4.50;1.08;;;16.70;1.00;;;;;;4823414;29;20388;-58
2022/11/25 06:05:22;;;;;;;14.95;1.83;;;16.60;1.00;;;;;;4823753;29;20062;-58
2022/11/25 06:07:50;;;;;;;12.57;1.48;;;16.60;1.00;;;;;;4824957;29;20470;-58
2022/11/25 06:10:18;;;;;;;3.53;0.77;;;16.60;1.00;;;;;;4823673;29;20054;-57
2022/11/25 06:12:45;;;;;;;2.88;1.05;;;16.60;1.00;;;;;;4824571;29;20380;-58
2022/11/25 06:15:13;;;;;;;6.60;1.60;;;16.60;1.00;;;;;;4823547;29;20054;-58
2022/11/25 06:17:40;;;;;;;6.03;1.02;;;16.60;1.00;;;;;;4838688;29;20076;-58
2022/11/25 06:20:12;;;;;;;4.00;1.10;;;16.60;1.00;;;;;;4838761;29;20407;-58
2022/11/25 06:22:39;;;;;;;7.88;1.88;;;16.60;1.00;;;;;;4823195;29;20058;-58
2022/11/25 06:25:06;;;;;;;5.43;1.52;;;16.60;1.00;;;;;;4824607;29;20123;-57
2022/11/25 06:27:37;;;;;;;2.67;1.08;;;16.60;1.00;;;;;;4823453;29;20499;-58
2022/11/25 06:30:24;;;;;;;5.30;1.10;;;16.50;1.00;;;;;;4824606;29;20049;-58
2022/11/25 06:33:07;;;;;;;6.65;1.17;;;16.50;1.00;;;;;;4822997;29;20050;-57
2022/11/25 06:35:35;;;;;;;2.70;0.98;;;16.50;1.00;;;;;;4838427;29;20050;-58
2022/11/25 06:38:02;;;;;;;6.30;1.30;;;16.50;1.00;;;;;;4823197;29;20106;-58
2022/11/25 06:40:29;;;;;;;3.47;1.00;;;16.50;1.00;;;;;;4824252;29;20050;-58
2022/11/25 06:42:56;;;;;;;3.13;1.05;;;16.50;1.00;;;;;;4824150;29;20050;-58
2022/11/25 06:45:22;;;;;;;3.83;1.55;;;16.50;1.00;;;;;;4824588;29;20125;-58
2022/11/25 06:47:49;;;;;;;2.55;1.00;;;16.50;1.00;;;;;;4824312;29;20564;-58
2022/11/25 06:50:16;;;;;;;9.27;1.38;;;16.50;1.00;;;;;;4824192;29;20058;-58
2022/11/25 06:52:43;;;;;;;6.30;2.00;;;16.50;1.00;;;;;;4823758;29;20069;-58
2022/11/25 06:55:12;;;;;;;6.70;1.17;;;16.50;1.00;;;;;;4824034;29;20042;-57
2022/11/25 06:58:03;;;;;;;3.78;1.10;;;16.40;1.00;;;;;;4824010;29;20499;-58
2022/11/25 07:00:51;;;;;;;6.32;1.17;;;16.50;1.00;;;;;;4821342;29;20137;-58
2022/11/25 07:03:27;;;;;;;4.30;1.05;;;16.40;1.00;;;;;;4823768;29;20054;-59
2022/11/25 07:05:57;;;;;;;9.63;1.15;;;16.40;1.00;;;;;;4823959;29;20099;-58
2022/11/25 07:08:26;;;;;;;4.32;0.70;;;16.40;1.00;;;;;;4824050;29;20514;-58
2022/11/25 07:11:09;;;;;;;2.53;1.13;;;16.40;1.00;;;;;;4823606;29;20051;-58
2022/11/25 07:13:35;;;;;;;;;;;16.40;1.00;;;;;;4823941;29;20469;-58
2022/11/25 07:16:04;;;;;;;2.58;0.93;;;16.40;1.00;;;;;;4823792;29;19932;-56
2022/11/25 07:18:33;;;;;;;4.43;1.23;;;16.40;1.00;;;;;;4837570;29;20296;-58
2022/11/25 07:21:05;;;;;;;3.50;0.68;;;16.40;1.00;;;;;;4823607;29;20046;-59
2022/11/25 07:23:34;;;;;;;3.10;0.70;;;16.40;1.00;;;;;;4823300;29;20558;-59
2022/11/25 07:26:15;;;;;;;6.90;1.33;;;16.40;1.00;;;;;;4821302;29;20050;-58
2022/11/25 07:28:43;;;;;;;4.22;0.80;;;16.30;1.00;;;;;;4818176;29;20585;-57
2022/11/25 07:31:16;;;;;;;7.57;1.02;;;16.30;1.00;;;;;;4823701;29;20119;-58
2022/11/25 07:34:11;;;;;;;6.55;1.17;;;16.30;1.00;;;;;;4823193;29;20054;-58
2022/11/25 07:36:38;;;;;;;3.25;1.10;;;16.30;1.00;;;;;;4823338;29;20491;-58
2022/11/25 07:39:10;;;;;;;2.63;1.13;;;16.30;1.00;;;;;;4823183;29;20046;-58
2022/11/25 07:41:37;;;;;;;3.15;0.80;;;16.30;1.00;;;;;;4823563;29;20132;-58
2022/11/25 07:44:05;;;;;;;3.83;1.02;;;16.30;1.00;;;;;;4823267;29;20422;-58
2022/11/25 07:46:44;;;;;;;6.57;1.17;;;16.30;1.00;;;;;;4822216;29;20054;-58
2022/11/25 07:49:14;;;;;;;3.75;1.08;;;16.30;1.00;;;;;;4823274;29;20077;-58
2022/11/25 07:52:03;;;;;;;3.25;0.90;;;16.30;1.00;;;;;;4823394;29;20054;-58
2022/11/25 07:54:31;;;;;;;2.05;0.95;;;16.30;1.00;;;;;;4822982;29;20054;-58
2022/11/25 07:56:58;;;;;;;2.40;0.80;;;16.30;1.00;;;;;;4823437;29;20559;-58
2022/11/25 07:59:24;;;;;;;3.20;1.08;;;16.30;1.00;;;;;;4822573;29;20050;-58
2022/11/25 08:01:54;;;;;;;4.13;1.20;;;16.30;1.00;;;;;;4822354;29;20074;-58
2022/11/25 08:04:21;;;;;;;2.70;0.68;;;16.30;1.00;;;;;;4822154;29;20088;-58
2022/11/25 08:06:50;;;;;;;4.78;0.93;;;16.30;1.00;;;;;;4822424;29;20046;-59
2022/11/25 08:09:20;;;;;;;3.67;1.13;;;16.20;1.00;;;;;;4822316;29;20055;-59
2022/11/25 08:11:48;;;;;;;4.45;1.38;;;16.20;1.00;;;;;;4822417;29;20050;-59
2022/11/25 08:14:15;;;;;;;4.90;0.95;;;16.30;1.00;;;;;;4821878;29;20071;-58
2022/11/25 08:16:42;;;;;;;8.70;1.23;;;16.20;1.00;;;;;;4822444;29;20464;-58
2022/11/25 08:19:12;;;;;;;4.30;0.63;;;16.20;1.00;;;;;;4820792;29;20058;-58
2022/11/25 08:21:40;;;;;;;2.47;0.85;;;16.20;1.00;;;;;;4822333;29;20046;-58
2022/11/25 08:24:07;;;;;;;3.78;1.60;;;16.20;1.00;;;;;;4823531;29;20055;-58
2022/11/25 08:26:36;;;;;;;4.07;0.75;;;16.20;1.00;;;;;;4825332;29;20494;-58
2022/11/25 08:29:05;;;;;;;2.83;0.82;;;16.20;1.00;;;;;;4825091;29;20133;-58
2022/11/25 08:31:34;;;;;;;5.30;1.10;;;16.20;1.00;;;;;;4825295;29;20050;-58
2022/11/25 08:34:02;;;;;;;4.10;1.33;;;16.20;1.00;;;;;;4824840;29;20046;-58
2022/11/25 08:36:29;;;;;;;2.17;1.08;;;16.20;1.00;;;;;;4825174;29;20042;-58
2022/11/25 08:38:58;;;;;;;3.65;0.95;;;16.20;1.00;;;;;;4825052;29;20125;-58
2022/11/25 08:41:36;;;;;;;2.92;1.05;;;16.10;1.00;;;;;;4825022;29;20050;-58
2022/11/25 08:44:06;;;;;;;4.88;1.63;;;16.10;1.00;;;;;;4824909;29;20170;-58
2022/11/25 08:46:36;;;;;;;3.70;0.80;;;16.10;1.00;;;;;;4825171;29;20054;-58
2022/11/25 08:49:05;;;;;;;4.13;0.60;;;16.10;1.00;;;;;;4824982;29;20118;-58
2022/11/25 08:51:34;;;;;;;4.85;0.73;;;16.20;1.00;;;;;;4825001;29;20057;-58
2022/11/25 08:54:01;;;;;;;2.80;0.60;;;16.10;1.00;;;;;;4824609;29;20046;-58
2022/11/25 08:56:28;;;;;;;2.60;0.85;;;16.10;1.00;;;;;;4824867;29;20042;-58
2022/11/25 08:58:54;;;;;;;5.20;1.08;;;16.10;1.00;;;;;;4790053;29;1057850;-58
2022/11/25 09:01:22;;;;;;;3.65;0.70;;;16.10;1.00;;;;;;4825915;29;20594;-58
2022/11/25 09:03:51;;;;;;;3.22;0.73;;;16.10;1.00;;;;;;4825689;29;20050;-58
2022/11/25 09:06:19;;;;;;;4.72;0.77;;;16.10;1.00;;;;;;4825713;29;20121;-58
2022/11/25 09:08:45;;;;;;;2.70;0.73;;;16.10;1.00;;;;;;4825785;29;20051;-58
2022/11/25 09:11:13;;;;;;;5.03;0.60;;;16.10;1.00;;;;;;4825727;29;20558;-58
2022/11/25 09:13:40;;;;;;;3.08;0.85;;;16.10;1.00;;;;;;4825441;29;20088;-58
2022/11/25 09:16:08;;;;;;;4.50;0.90;;;16.10;1.00;;;;;;4825704;29;20077;-58
2022/11/25 09:18:36;;;;;;;3.85;1.23;;;16.10;1.00;;;;;;4825492;29;20043;-58
2022/11/25 09:21:09;;;;;;;4.10;1.13;;;16.10;1.00;;;;;;4825595;29;20062;-58
2022/11/25 09:23:37;;;;;;;3.83;1.40;;;16.10;1.00;;;;;;4825393;29;20046;-58
2022/11/25 09:26:05;;;;;;;3.15;0.85;;;16.10;1.00;;;;;;4825620;29;20042;-58
2022/11/25 09:28:33;;;;;;;4.47;0.80;;;16.10;1.00;;;;;;4825493;29;20061;-58
2022/11/25 09:31:06;;;;;;;4.43;1.08;;;16.10;1.00;;;;;;4825432;29;20062;-58
2022/11/25 09:33:33;;;;;;;2.58;0.82;;;16.10;1.00;;;;;;4825132;29;20074;-58
2022/11/25 09:36:00;;;;;;;3.95;1.30;;;16.10;1.00;;;;;;4825229;29;20046;-59
2022/11/25 09:38:27;;;;;;;2.95;1.10;;;16.00;1.00;;;;;;4825338;29;20042;-59
2022/11/25 09:41:14;;;;;;;2.38;0.70;;;16.00;1.00;;;;;;4839274;29;20468;-58
2022/11/25 09:46:44;;;;;;;3.72;0.98;;;16.00;1.00;;;;;;4825246;29;20054;-59
2022/11/25 09:49:30;;;;;;;5.57;1.02;;;16.00;1.00;;;;;;4825168;29;20055;-59
2022/11/25 09:52:34;;;;;;;4.40;0.95;;;16.00;1.00;;;;;;4825063;29;20054;-58
2022/11/25 09:55:10;;;;;;;4.07;0.85;;;16.00;1.00;;;;;;4813784;29;20510;-59
2022/11/25 09:58:00;;;;;;;6.95;1.95;;;16.00;1.00;;;;;;4824886;29;20407;-59
2022/11/25 10:00:37;;;;;;;3.22;1.35;;;16.00;1.00;;;;;;4823746;29;20133;-59
2022/11/25 10:03:22;;;;;;;5.30;1.30;;;16.00;1.00;;;;;;4824686;29;20061;-59
2022/11/25 10:06:12;;;;;;;2.72;0.85;;;16.00;1.00;;;;;;4824849;29;20042;-59
2022/11/25 10:08:43;;;;;;;5.10;1.40;;;16.00;1.00;;;;;;4824835;29;20042;-59
2022/11/25 10:11:13;;;;;;;3.65;0.88;;;16.00;1.00;;;;;;4825299;29;20399;-59
2022/11/25 10:13:57;;;;;;;4.13;0.88;;;16.00;1.00;;;;;;4824453;29;20079;-59
2022/11/25 10:16:35;;;;;;;3.28;0.95;;;16.00;1.00;;;;;;4824684;29;20049;-59
2022/11/25 10:19:19;;;;;;;7.25;1.45;;;16.00;1.00;;;;;;4824645;29;20508;-59
2022/11/25 10:21:45;;;;;;;;;;;16.10;1.00;;;;;;4825173;29;20054;-59
2022/11/25 10:24:16;;;;;;;2.70;0.60;;;16.00;1.00;;;;;;4824367;29;19925;-59
2022/11/25 10:26:47;;;;;;;5.63;1.27;;;16.00;1.00;;;;;;4824683;29;20050;-59
2022/11/25 10:29:25;;;;;;;3.42;0.65;;;16.00;1.00;;;;;;4823294;29;20082;-58
2022/11/25 10:32:15;;;;;;;2.53;0.73;;;16.10;1.00;;;;;;4824392;29;20050;-58
2022/11/25 10:34:48;;;;;;;4.97;1.33;;;16.00;1.00;;;;;;4823088;29;20074;-58
2022/11/25 10:37:26;;;;;;;3.13;0.63;;;16.10;1.00;;;;;;4824507;29;20085;-58
2022/11/25 10:39:53;;;;;;;4.28;1.02;;;16.10;1.00;;;;;;4824381;29;20565;-58
2022/11/25 10:42:27;;;;;;;2.58;0.98;;;16.10;1.00;;;;;;4823729;29;20503;-58
2022/11/25 10:44:54;;;;;;;5.63;0.90;;;16.10;1.00;;;;;;4824269;29;20050;-58
2022/11/25 10:47:35;;;;;;;2.28;0.90;;;16.10;1.00;;;;;;4823714;29;20046;-58
2022/11/25 10:50:32;;;;;;;2.30;0.68;;;16.10;1.00;;;;;;4824281;29;20054;-58
2022/11/25 10:53:03;;;;;;;4.57;0.80;;;16.20;1.00;;;;;;4824052;29;20057;-58
2022/11/25 10:55:32;;;;;;;2.97;0.80;;;16.20;1.00;;;;;;4824015;29;20077;-58
2022/11/25 10:58:26;;;;;;;3.78;0.73;;;16.20;1.00;;;;;;4824133;29;20451;-58
2022/11/25 11:01:01;;;;;;;;;;;16.20;1.00;;;;;;4824281;29;20057;-58
2022/11/25 11:03:28;;;;;;;3.35;0.40;;;16.20;1.00;;;;;;4823935;29;20056;-58
2022/11/25 11:05:55;;;;;;;4.68;0.68;;;16.20;1.00;;;;;;4824003;29;20046;-58
2022/11/25 11:08:25;;;;;;;4.07;0.93;;;16.20;1.00;;;;;;4824006;29;20563;-58
2022/11/25 11:11:20;;;;;;;5.32;0.98;;;16.20;1.00;;;;;;4823946;29;20050;-58
2022/11/25 11:13:49;;;;;;;2.88;0.45;;;16.20;1.00;;;;;;4822807;29;20566;-58
2022/11/25 11:16:36;;;;;;;2.28;0.70;;;16.20;1.00;;;;;;4823793;29;20054;-58
2022/11/25 11:19:03;;;;;;;1.80;0.57;;;16.20;1.00;;;;;;4823870;29;20152;-58
2022/11/25 11:21:33;;;;;;;3.25;0.73;;;16.30;1.00;;;;;;4823771;29;20042;-58
2022/11/25 11:24:01;;;;;;;5.68;1.05;;;16.20;1.00;;;;;;4823531;29;20132;-58
2022/11/25 11:26:31;;;;;;;5.88;0.75;;;16.30;1.00;;;;;;4823724;29;20047;-58
2022/11/25 11:28:59;;;;;;;3.50;0.80;;;16.30;1.00;;;;;;4823642;29;20559;-58
2022/11/25 11:31:35;;;;;;;2.20;0.50;;;16.30;1.00;;;;;;4822439;29;20093;-59
2022/11/25 11:34:34;;;;;;;5.72;0.80;;;16.30;1.00;;;;;;4823547;29;20078;-59
2022/11/25 11:37:45;;;;;;;1.42;1.00;;;16.30;1.00;;;;;;4823738;29;20483;-59
2022/11/25 11:40:24;;;;;;;8.75;0.90;;;16.30;1.00;;;;;;4819068;29;20105;-60
2022/11/25 11:43:04;;;;;;;4.40;1.13;;;16.30;1.00;;;;;;4823284;29;20053;-60
2022/11/25 11:45:57;;;;;;;5.80;1.35;;;16.30;1.00;;;;;;4823526;29;20081;-60
2022/11/25 11:48:39;;;;;;;1.33;0.67;;;16.30;1.00;;;;;;4823477;29;20137;-59
2022/11/25 11:51:27;;;;;;;5.65;1.05;;;16.30;1.00;;;;;;4823353;29;20042;-60
2022/11/25 11:54:14;;;;;;;5.97;0.55;;;16.30;1.00;;;;;;4821725;29;20707;-58
2022/11/25 11:56:53;;;;;;;3.50;0.98;;;16.30;1.00;;;;;;4823344;29;20054;-58
2022/11/25 11:59:52;;;;;;;3.20;0.75;;;16.30;1.00;;;;;;4823284;29;20065;-58
2022/11/25 12:02:47;;;;;;;4.35;0.88;;;16.30;1.00;;;;;;4822918;29;20126;-57
2022/11/25 12:05:21;;;;;;;3.05;0.70;;;16.30;1.00;;;;;;4823217;29;20050;-58
2022/11/25 12:08:01;;;;;;;2.67;0.88;;;16.30;1.00;;;;;;4823172;29;20084;-58
2022/11/25 12:10:36;;;;;;;2.47;0.63;;;16.30;1.00;;;;;;4823133;29;20145;-58
2022/11/25 12:13:42;;;;;;;2.70;0.98;;;16.30;1.00;;;;;;4822878;29;20103;-58
2022/11/25 12:16:33;;;;;;;6.15;1.00;;;16.30;1.00;;;;;;4823136;29;20046;-58
2022/11/25 12:19:32;;;;;;;2.88;1.33;;;16.30;1.00;;;;;;4823096;29;20115;-57
2022/11/25 12:22:22;;;;;;;3.45;1.10;;;16.30;1.00;;;;;;4816054;29;20065;-57
2022/11/25 12:25:16;;;;;;;6.80;0.93;;;16.30;1.00;;;;;;4823076;29;20047;-59
2022/11/25 12:27:42;;;;;;;;;;;16.30;1.00;;;;;;4809353;29;20062;-58
2022/11/25 12:30:12;;;;;;;2.03;0.60;;;16.30;1.00;;;;;;4822885;29;19950;-58
2022/11/25 12:33:04;;;;;;;1.48;0.57;;;16.30;1.00;;;;;;4822597;29;20054;-58
2022/11/25 12:36:08;;;;;;;6.45;1.10;;;16.30;1.00;;;;;;4822739;29;20103;-58
2022/11/25 12:38:46;;;;;;;2.90;0.68;;;16.20;1.00;;;;;;4822815;29;20522;-58
2022/11/25 12:41:37;;;;;;;4.05;1.00;;;16.30;1.00;;;;;;4822852;29;20055;-58
2022/11/25 12:44:25;;;;;;;3.83;0.70;;;16.30;1.00;;;;;;4822718;29;20496;-58
2022/11/25 12:46:55;;;;;;;5.13;0.80;;;16.20;1.00;;;;;;4822795;29;20111;-58
2022/11/25 12:49:28;;;;;;;4.68;1.55;;;16.30;1.00;;;;;;4822606;29;20062;-58
2022/11/25 12:52:26;;;;;;;4.97;1.15;;;16.30;1.00;;;;;;4822796;29;20125;-58
2022/11/25 12:55:09;;;;;;;3.72;0.50;;;16.30;1.00;;;;;;4822595;29;20047;-58
2022/11/25 12:58:00;;;;;;;2.95;0.70;;;16.30;1.00;;;;;;4822544;29;20045;-58
2022/11/25 13:00:49;;;;;;;3.78;1.75;;;16.20;1.00;;;;;;4822623;29;20474;-58
2022/11/25 13:03:31;;;;;;;4.30;0.98;;;16.20;1.00;;;;;;4822287;29;20486;-58
2022/11/25 13:06:07;;;;;;;5.53;1.10;;;16.30;1.00;;;;;;4822405;29;20042;-58
2022/11/25 13:08:51;;;;;;;5.45;1.30;;;16.20;1.00;;;;;;4822439;29;20049;-58
2022/11/25 13:11:49;;;;;;;2.95;1.00;;;16.20;1.00;;;;;;4825688;29;20050;-58
2022/11/25 13:14:58;;;;;;;2.17;0.65;;;16.20;1.00;;;;;;4825369;29;20064;-58
2022/11/25 13:17:28;;;;;;;2.92;0.85;;;16.20;1.00;;;;;;4825401;29;20422;-58
2022/11/25 13:20:22;;;;;;;2.30;1.08;;;16.20;1.00;;;;;;4825571;29;20054;-58
2022/11/25 13:23:04;;;;;;;4.75;0.98;;;16.20;1.00;;;;;;4825203;29;20050;-57
2022/11/25 13:25:32;;;;;;;7.70;1.42;;;16.30;1.00;;;;;;4823914;29;20082;-59
2022/11/25 13:28:01;;;;;;;8.70;1.65;;;16.20;1.00;;;;;;4825903;29;20075;-59
2022/11/25 13:30:31;;;;;;;12.57;2.80;;;16.20;1.00;;;;;;4827626;29;20050;-59
2022/11/25 13:33:23;;;;;;;14.68;2.35;;;16.20;1.00;;;;;;4831695;29;20060;-59
2022/11/25 13:35:55;;;;;;;10.90;1.80;;;16.30;1.00;;;;;;4815049;29;20118;-59
2022/11/25 13:38:33;;;;;;;5.70;1.58;;;16.30;1.00;;;;;;4806171;29;20131;-59
2022/11/25 13:41:23;;;;;;;5.10;1.65;;;16.30;1.00;;;;;;4805951;29;20047;-59